Time;durP1;ratioP1;P1;durP2;ratioP2;P2;SDS_P1;SDS_P2;PMS_P1;PMS_P2;Temp;Humidity;BMP_temperature;BMP_pressure;BME280_temperature;BME280_humidity;BME280_pressure;Samples;Min_cycle;Max_cycle;Signal;HPM_P1;HPM_P2
2021/12/24 00:00:10;;;;;;;11.77;9.23;;;;;;;6.52;93.26;99224.31;5029123;28;20240;-64
2021/12/24 00:02:36;;;;;;;13.93;10.37;;;;;;;6.39;94.12;99227.50;4986229;28;20227;-64
2021/12/24 00:05:03;;;;;;;10.40;8.80;;;;;;;6.38;94.28;99210.50;4974156;28;20625;-65
2021/12/24 00:07:28;;;;;;;11.80;9.13;;;;;;;6.45;94.79;99208.47;4980889;28;20297;-65
2021/12/24 00:09:54;;;;;;;14.30;9.90;;;;;;;6.41;94.61;99206.97;5005920;28;20290;-64
2021/12/24 00:12:21;;;;;;;11.53;9.87;;;;;;;6.37;94.78;99196.09;4987619;28;20265;-64
2021/12/24 00:14:51;;;;;;;10.23;9.17;;;;;;;6.36;95.40;99189.31;4974129;28;20180;-64
2021/12/24 00:17:22;;;;;;;13.23;9.77;;;;;;;6.41;95.23;99187.38;5007837;28;20237;-64
2021/12/24 00:21:38;;;;;;;11.50;9.70;;;;;;;6.50;94.70;99188.63;5011966;28;20251;-64
2021/12/24 00:23:15;;;;;;;10.77;9.17;;;;;;;6.54;94.49;99179.88;4996407;28;20212;-64
2021/12/24 00:35:07;;;;;;;12.40;9.03;;;;;;;6.61;94.03;99191.44;5016677;28;20249;-63
2021/12/24 00:36:27;;;;;;;14.50;9.67;;;;;;;6.67;93.86;99210.72;5012195;28;20689;-65
2021/12/24 00:38:53;;;;;;;11.00;9.23;;;;;;;6.62;94.10;99212.69;5012870;28;20176;-64
2021/12/24 00:41:18;;;;;;;11.30;9.27;;;;;;;6.64;93.88;99210.91;5023017;28;20657;-65
2021/12/24 00:43:43;;;;;;;12.53;8.30;;;;;;;6.68;93.91;99211.56;5014104;28;20194;-65
2021/12/24 00:46:09;;;;;;;11.60;8.87;;;;;;;6.75;93.38;99200.13;5011673;28;20612;-65
2021/12/24 00:48:34;;;;;;;11.50;9.10;;;;;;;6.60;93.35;99205.13;5012502;28;20199;-64
2021/12/24 00:56:01;;;;;;;10.03;8.80;;;;;;;6.57;93.62;99202.75;5011737;28;20219;-65
2021/12/24 00:58:26;;;;;;;14.00;9.60;;;;;;;6.52;94.03;99204.69;5011915;28;20212;-64
2021/12/24 01:00:52;;;;;;;11.30;9.37;;;;;;;6.53;94.14;99206.34;5008705;28;20722;-65
2021/12/24 01:03:18;;;;;;;12.13;9.97;;;;;;;6.57;94.30;99205.28;5008000;28;20189;-65
2021/12/24 01:05:44;;;;;;;11.80;8.97;;;;;;;6.63;94.09;99199.03;5006264;28;20196;-65
2021/12/24 01:08:10;;;;;;;16.37;9.33;;;;;;;6.51;94.52;99205.63;5012203;28;20213;-65
2021/12/24 01:10:50;;;;;;;9.97;8.83;;;;;;;6.53;94.69;99195.31;5003382;28;20241;-64
2021/12/24 01:13:16;;;;;;;11.87;9.30;;;;;;;6.57;94.22;99189.13;5010256;28;20182;-64
2021/12/24 01:15:54;;;;;;;14.60;9.77;;;;;;;6.60;93.97;99199.19;5011843;28;20204;-64
2021/12/24 01:18:32;;;;;;;12.50;9.90;;;;;;;6.66;94.07;99203.97;5011818;28;20186;-64
2021/12/24 01:21:21;;;;;;;13.90;10.17;;;;;;;6.60;94.10;99183.88;5009051;28;20612;-64
2021/12/24 01:23:53;;;;;;;16.13;10.23;;;;;;;6.75;93.80;99185.59;5013353;28;20562;-64
2021/12/24 01:26:34;;;;;;;11.87;9.43;;;;;;;6.73;93.63;99192.50;5011868;28;20260;-64
2021/12/24 01:29:37;;;;;;;11.67;9.90;;;;;;;6.89;92.88;99177.16;5010741;28;20204;-64
2021/12/24 01:40:39;;;;;;;12.67;9.17;;;;;;;6.82;92.58;99191.19;4999056;28;20210;-65
2021/12/24 01:43:05;;;;;;;10.93;9.40;;;;;;;6.65;93.31;99188.72;5014182;28;20636;-65
2021/12/24 01:45:33;;;;;;;10.60;9.47;;;;;;;6.79;93.45;99194.72;5010941;28;20177;-64
2021/12/24 01:48:04;;;;;;;11.30;9.37;;;;;;;6.79;93.05;99191.38;5011315;28;20206;-65
2021/12/24 01:50:34;;;;;;;10.07;8.93;;;;;;;6.82;92.87;99193.75;5001667;28;20260;-65
2021/12/24 01:53:05;;;;;;;11.03;9.53;;;;;;;6.83;93.08;99192.03;5002891;28;20186;-65
2021/12/24 01:55:32;;;;;;;12.27;8.93;;;;;;;7.02;92.82;99187.56;5006286;28;20190;-64
2021/12/24 01:57:57;;;;;;;12.03;9.47;;;;;;;7.08;92.33;99184.69;5011230;28;20654;-65
2021/12/24 02:00:28;;;;;;;10.03;8.27;;;;;;;7.13;91.91;99186.97;5004069;28;20227;-65
2021/12/24 02:02:54;;;;;;;11.30;9.33;;;;;;;6.92;92.36;99186.41;5022761;28;20178;-65
2021/12/24 02:05:19;;;;;;;9.40;8.43;;;;;;;6.98;93.21;99177.59;5011080;28;20225;-64
2021/12/24 02:07:46;;;;;;;9.93;8.40;;;;;;;6.85;93.37;99183.38;5012337;28;20201;-65
2021/12/24 02:10:13;;;;;;;10.50;8.67;;;;;;;6.99;93.49;99179.25;5002279;28;20288;-65
2021/12/24 02:12:40;;;;;;;10.97;8.03;;;;;;;6.87;94.04;99173.91;5022528;28;20328;-65
2021/12/24 02:15:12;;;;;;;11.93;8.60;;;;;;;6.95;93.87;99166.63;5021159;28;20192;-65
2021/12/24 02:17:56;;;;;;;10.03;7.87;;;;;;;7.14;94.32;99169.91;5010167;28;20286;-65
2021/12/24 02:28:39;;;;;;;9.73;8.57;;;;;;;7.32;92.41;99138.19;5010944;28;20236;-64
2021/12/24 02:31:13;;;;;;;8.67;7.77;;;;;;;7.39;92.16;99144.59;5000142;28;20681;-64
2021/12/24 02:33:39;;;;;;;11.07;8.37;;;;;;;7.56;91.85;99141.06;5010774;28;20251;-64
2021/12/24 02:36:05;;;;;;;10.87;8.40;;;;;;;7.55;91.68;99129.22;5010390;28;20202;-64
2021/12/24 02:38:31;;;;;;;12.50;8.83;;;;;;;7.53;91.54;99131.03;5010191;28;20181;-65
2021/12/24 02:40:57;;;;;;;9.40;7.60;;;;;;;7.59;92.02;99123.00;5007292;28;20654;-65
2021/12/24 02:43:24;;;;;;;9.13;8.17;;;;;;;7.64;91.60;99121.88;5018738;28;20171;-65
2021/12/24 02:45:52;;;;;;;9.13;7.77;;;;;;;7.62;91.18;99123.75;5009999;28;20237;-64
2021/12/24 02:48:55;;;;;;;9.43;7.40;;;;;;;7.67;91.21;99117.41;5010541;28;20197;-64
2021/12/24 02:53:59;;;;;;;10.13;8.20;;;;;;;7.55;92.31;99123.25;5005635;28;20193;-65
2021/12/24 02:56:36;;;;;;;8.47;6.80;;;;;;;7.61;92.99;99129.75;5010882;28;20200;-65
2021/12/24 02:59:07;;;;;;;8.57;6.90;;;;;;;7.58;93.81;99143.56;5005378;28;20170;-66
2021/12/24 03:01:35;;;;;;;10.10;7.10;;;;;;;7.36;94.79;99144.78;5011513;28;20275;-65
2021/12/24 03:04:02;;;;;;;7.77;6.67;;;;;;;7.43;96.30;99150.38;5009714;28;20739;-65
2021/12/24 03:06:32;;;;;;;9.07;7.40;;;;;;;7.57;96.34;99147.03;5008856;28;20198;-65
2021/12/24 03:08:59;;;;;;;10.23;6.73;;;;;;;7.54;96.58;99144.63;5010360;28;20194;-65
2021/12/24 03:11:25;;;;;;;9.83;6.33;;;;;;;7.64;96.26;99132.97;5015124;28;20751;-65
2021/12/24 03:13:52;;;;;;;9.60;6.87;;;;;;;7.64;96.36;99140.66;5018355;28;20186;-65
2021/12/24 03:16:17;;;;;;;9.13;6.50;;;;;;;7.74;96.05;99133.25;5014311;28;20698;-65
2021/12/24 03:18:44;;;;;;;6.70;6.00;;;;;;;7.72;96.13;99124.84;5013910;28;20182;-65
2021/12/24 03:23:46;;;;;;;9.13;7.10;;;;;;;7.77;95.52;99127.13;5008355;28;20322;-65
2021/12/24 03:26:13;;;;;;;8.67;7.00;;;;;;;7.92;95.01;99139.03;5013791;28;20217;-65
2021/12/24 03:28:39;;;;;;;9.70;6.93;;;;;;;7.91;94.42;99119.44;5013704;28;20937;-65
2021/12/24 03:31:06;;;;;;;7.77;6.00;;;;;;;7.84;94.21;99119.00;5011623;28;20234;-65
2021/12/24 03:33:33;;;;;;;9.40;6.50;;;;;;;7.81;94.99;99113.22;5020797;28;20179;-65
2021/12/24 03:36:01;;;;;;;10.90;6.30;;;;;;;7.70;95.73;99113.84;5013656;28;20206;-65
2021/12/24 03:38:26;;;;;;;6.97;6.13;;;;;;;7.61;97.14;99116.97;5013854;28;20322;-65
2021/12/24 03:40:52;;;;;;;6.10;5.50;;;;;;;7.53;98.18;99114.81;5005474;28;20315;-65
2021/12/24 03:43:17;;;;;;;7.13;6.43;;;;;;;7.57;98.53;99113.75;5007903;28;20234;-65
2021/12/24 03:48:17;;;;;;;6.93;6.33;;;;;;;7.43;99.35;99112.81;5013643;28;20195;-65
2021/12/24 03:50:53;;;;;;;7.47;6.73;;;;;;;7.49;98.94;99121.03;5008607;28;20233;-65
2021/12/24 03:56:03;;;;;;;6.07;5.47;;;;;;;7.44;99.25;99103.38;5004207;28;20240;-65
2021/12/24 03:58:28;;;;;;;7.83;6.27;;;;;;;7.40;99.61;99101.94;5013744;28;20178;-65
2021/12/24 04:00:53;;;;;;;7.00;6.20;;;;;;;7.38;99.89;99102.03;4990197;28;20241;-65
2021/12/24 04:03:19;;;;;;;7.37;6.33;;;;;;;7.41;100.00;99106.94;5012525;28;20179;-65
2021/12/24 04:05:46;;;;;;;7.70;6.67;;;;;;;7.33;100.00;99092.94;4996373;28;20170;-65
2021/12/24 04:08:11;;;;;;;7.30;6.47;;;;;;;7.28;100.00;99085.53;5012003;28;20171;-65
2021/12/24 04:10:39;;;;;;;7.93;6.40;;;;;;;7.25;100.00;99091.66;4993053;28;20249;-65
2021/12/24 04:13:07;;;;;;;7.83;6.90;;;;;;;7.37;100.00;99091.88;5022440;28;20181;-65
2021/12/24 04:15:33;;;;;;;8.27;6.47;;;;;;;7.33;100.00;99098.91;5003037;28;20729;-65
2021/12/24 04:17:58;;;;;;;8.90;7.37;;;;;;;7.37;100.00;99094.44;5004856;28;20195;-65
2021/12/24 04:25:51;;;;;;;7.77;6.53;;;;;;;7.43;100.00;99096.66;4993124;28;20245;-65
2021/12/24 04:28:16;;;;;;;9.23;6.83;;;;;;;7.37;100.00;99097.81;4993430;28;20199;-65
2021/12/24 04:30:47;;;;;;;8.30;7.50;;;;;;;7.31;100.00;99099.91;4974054;28;20316;-65
2021/12/24 04:33:39;;;;;;;8.83;7.03;;;;;;;7.47;100.00;99092.16;5022528;28;20237;-65
2021/12/24 04:36:11;;;;;;;12.73;8.10;;;;;;;7.45;100.00;99083.75;5012072;28;20183;-65
2021/12/24 04:52:04;;;;;;;9.40;7.83;;;;;;;7.56;100.00;99099.31;5000799;28;20296;-65
2021/12/24 05:03:02;;;;;;;10.17;7.43;;;;;;;7.40;100.00;99110.41;5001318;28;20283;-65
2021/12/24 05:05:43;;;;;;;9.00;7.73;;;;;;;7.45;100.00;99109.34;5011514;28;20186;-65
2021/12/24 05:08:19;;;;;;;10.13;7.70;;;;;;;7.49;100.00;99110.81;5012138;28;20648;-65
2021/12/24 05:10:45;;;;;;;9.67;7.33;;;;;;;7.63;100.00;99112.56;5007557;28;20260;-65
2021/12/24 05:13:13;;;;;;;11.30;8.77;;;;;;;7.48;100.00;99110.00;5021957;28;20203;-65
2021/12/24 05:15:41;;;;;;;9.73;8.70;;;;;;;7.57;100.00;99113.75;5013893;28;20182;-65
2021/12/24 05:18:16;;;;;;;13.13;8.80;;;;;;;7.35;100.00;99104.75;5014095;28;20202;-65
2021/12/24 05:23:26;;;;;;;10.27;8.57;;;;;;;7.51;100.00;99109.00;5026098;28;20606;-65
2021/12/24 05:25:51;;;;;;;13.43;9.57;;;;;;;7.37;100.00;99117.47;5010935;28;20191;-65
2021/12/24 05:28:18;;;;;;;12.73;9.77;;;;;;;7.42;100.00;99123.94;5010070;28;20222;-65
2021/12/24 05:30:44;;;;;;;14.37;9.27;;;;;;;7.43;100.00;99127.34;5006175;28;20237;-65
2021/12/24 05:33:13;;;;;;;11.67;9.23;;;;;;;7.45;100.00;99128.06;5021076;28;20237;-65
2021/12/24 05:35:39;;;;;;;9.70;8.03;;;;;;;7.54;100.00;99134.41;5011664;28;20185;-65
2021/12/24 05:38:05;;;;;;;9.70;8.63;;;;;;;7.46;100.00;99139.16;5011514;28;20199;-65
2021/12/24 05:40:30;;;;;;;11.77;9.17;;;;;;;7.39;100.00;99144.59;5005323;28;20317;-65
2021/12/24 05:42:56;;;;;;;10.00;9.00;;;;;;;7.59;100.00;99147.75;5008029;28;20188;-65
2021/12/24 05:45:24;;;;;;;10.70;8.87;;;;;;;7.65;100.00;99144.84;5003749;28;20187;-65
2021/12/24 05:47:49;;;;;;;11.37;8.50;;;;;;;7.73;100.00;99136.72;5011230;28;20611;-65
2021/12/24 05:50:15;;;;;;;9.07;8.03;;;;;;;7.68;100.00;99144.66;5003046;28;20712;-65
2021/12/24 05:52:40;;;;;;;12.00;8.87;;;;;;;7.64;100.00;99148.31;5020943;28;20333;-65
2021/12/24 05:55:06;;;;;;;17.77;8.80;;;;;;;7.56;100.00;99150.50;5011122;28;20178;-65
2021/12/24 05:57:31;;;;;;;11.87;8.63;;;;;;;7.48;100.00;99143.25;5010683;28;20202;-65
2021/12/24 05:59:57;;;;;;;11.27;8.73;;;;;;;7.48;100.00;99140.69;5011304;28;20544;-65
2021/12/24 06:02:22;;;;;;;9.83;8.27;;;;;;;7.50;100.00;99141.41;5008198;28;20230;-65
2021/12/24 06:04:47;;;;;;;10.73;8.80;;;;;;;7.45;100.00;99140.88;4991399;28;20179;-65
2021/12/24 06:07:13;;;;;;;11.97;8.93;;;;;;;7.20;100.00;99144.81;5006234;28;20202;-65
2021/12/24 06:09:38;;;;;;;9.83;8.17;;;;;;;7.40;100.00;99147.97;5010993;28;20178;-65
2021/12/24 06:12:04;;;;;;;12.27;9.00;;;;;;;7.38;100.00;99147.22;5016167;28;20237;-65
2021/12/24 06:14:29;;;;;;;10.80;8.17;;;;;;;7.28;100.00;99141.81;5010412;28;20178;-65
2021/12/24 06:17:03;;;;;;;11.07;8.77;;;;;;;7.22;100.00;99148.09;5010801;28;20284;-65
2021/12/24 06:19:28;;;;;;;12.07;8.50;;;;;;;7.34;100.00;99145.78;5010668;28;20174;-65
2021/12/24 06:21:57;;;;;;;9.30;8.23;;;;;;;7.11;100.00;99141.03;5015257;28;20340;-65
2021/12/24 06:24:23;;;;;;;12.13;9.53;;;;;;;7.31;100.00;99139.09;5011088;28;20178;-65
2021/12/24 06:26:49;;;;;;;12.73;8.97;;;;;;;7.34;100.00;99132.97;5010374;28;20210;-65
2021/12/24 06:29:15;;;;;;;9.83;8.00;;;;;;;7.12;100.00;99134.19;5017873;28;20546;-65
2021/12/24 06:31:41;;;;;;;9.10;8.20;;;;;;;7.19;100.00;99132.91;5012425;28;20292;-65
2021/12/24 06:34:07;;;;;;;11.77;8.97;;;;;;;7.25;100.00;99124.91;5012912;28;20186;-65
2021/12/24 06:36:36;;;;;;;10.23;9.00;;;;;;;7.41;100.00;99119.75;5010148;28;20217;-65
2021/12/24 06:39:03;;;;;;;11.20;8.43;;;;;;;7.32;100.00;99127.13;5001752;28;20178;-65
2021/12/24 06:41:29;;;;;;;10.40;8.47;;;;;;;7.32;100.00;99130.50;5013467;28;20274;-65
2021/12/24 06:43:54;;;;;;;8.93;7.27;;;;;;;7.34;100.00;99135.53;5021711;28;20179;-65
2021/12/24 06:46:20;;;;;;;9.90;7.60;;;;;;;7.23;100.00;99131.84;5027384;28;20189;-65
2021/12/24 06:48:45;;;;;;;7.70;7.00;;;;;;;7.28;100.00;99129.03;5010947;28;20628;-65
2021/12/24 06:51:11;;;;;;;12.63;7.37;;;;;;;7.10;100.00;99125.78;5009323;28;20702;-65
2021/12/24 06:53:36;;;;;;;7.83;6.80;;;;;;;7.04;100.00;99124.38;5016703;28;20186;-65
2021/12/24 06:56:02;;;;;;;8.67;6.77;;;;;;;7.11;100.00;99127.44;5010733;28;20209;-66
2021/12/24 06:58:27;;;;;;;8.73;6.20;;;;;;;7.11;100.00;99124.88;5008656;28;20192;-64
2021/12/24 07:00:53;;;;;;;6.60;5.90;;;;;;;7.05;100.00;99131.13;5006865;28;20234;-65
2021/12/24 07:03:18;;;;;;;7.93;6.73;;;;;;;7.14;100.00;99139.22;5018954;28;20654;-65
2021/12/24 07:05:43;;;;;;;6.63;5.93;;;;;;;6.95;100.00;99147.91;5009622;28;20221;-64
2021/12/24 07:08:09;;;;;;;7.93;5.90;;;;;;;6.90;100.00;99145.59;5010207;28;20213;-65
2021/12/24 07:10:34;;;;;;;7.03;5.33;;;;;;;7.18;100.00;99154.31;5006926;28;20249;-64
2021/12/24 07:12:59;;;;;;;8.67;6.10;;;;;;;7.25;100.00;99159.91;5026512;28;20299;-64
2021/12/24 07:15:24;;;;;;;8.80;6.87;;;;;;;7.23;100.00;99162.56;5012383;28;20191;-64
2021/12/24 07:17:50;;;;;;;7.13;6.03;;;;;;;7.31;100.00;99166.41;5011082;28;20209;-64
2021/12/24 07:20:15;;;;;;;9.73;7.40;;;;;;;7.34;100.00;99161.13;5003477;28;20193;-64
2021/12/24 07:22:42;;;;;;;9.57;7.67;;;;;;;7.29;100.00;99147.75;5024886;28;20634;-64
2021/12/24 07:25:07;;;;;;;9.43;7.67;;;;;;;7.39;100.00;99152.28;5009394;28;20685;-64
2021/12/24 07:27:35;;;;;;;9.20;8.27;;;;;;;7.26;100.00;99154.69;5012403;28;20289;-64
2021/12/24 07:30:00;;;;;;;9.83;8.17;;;;;;;7.22;100.00;99160.09;5010057;28;20208;-64
2021/12/24 07:32:25;;;;;;;10.57;8.80;;;;;;;7.13;100.00;99151.16;5012094;28;20226;-64
2021/12/24 07:34:51;;;;;;;9.60;8.60;;;;;;;7.21;100.00;99155.88;5008507;28;20182;-64
2021/12/24 07:37:16;;;;;;;10.63;8.33;;;;;;;7.22;100.00;99157.53;5009687;28;20647;-64
2021/12/24 07:39:42;;;;;;;9.20;8.10;;;;;;;7.12;100.00;99149.53;5009191;28;20236;-64
2021/12/24 07:42:08;;;;;;;9.70;8.00;;;;;;;7.29;100.00;99155.44;5015776;28;20571;-64
2021/12/24 07:44:35;;;;;;;9.03;8.10;;;;;;;7.32;100.00;99162.94;5011225;28;20214;-63
2021/12/24 07:47:02;;;;;;;11.23;8.67;;;;;;;7.31;100.00;99163.88;5011187;28;20683;-63
2021/12/24 07:52:01;;;;;;;10.67;8.60;;;;;;;7.47;100.00;99163.78;5015996;28;20309;-64
2021/12/24 07:54:27;;;;;;;9.70;8.53;;;;;;;7.27;100.00;99158.91;5025413;28;20313;-64
2021/12/24 07:56:52;;;;;;;12.10;9.10;;;;;;;7.37;100.00;99161.78;5028979;28;20688;-64
2021/12/24 07:59:18;;;;;;;12.03;9.13;;;;;;;7.31;100.00;99151.06;5013875;28;20191;-64
2021/12/24 08:01:44;;;;;;;10.50;8.63;;;;;;;7.46;100.00;99154.50;5006202;28;20232;-64
2021/12/24 08:04:11;;;;;;;10.20;8.90;;;;;;;7.52;100.00;99154.16;4995852;28;20230;-64
2021/12/24 08:06:37;;;;;;;10.03;8.60;;;;;;;7.59;100.00;99151.16;5007195;28;20590;-64
2021/12/24 08:09:06;;;;;;;10.53;9.53;;;;;;;7.51;100.00;99143.06;5012960;28;20262;-64
2021/12/24 08:11:32;;;;;;;11.37;8.87;;;;;;;7.57;100.00;99141.91;5009112;28;20234;-64
2021/12/24 08:13:57;;;;;;;9.33;8.43;;;;;;;7.61;100.00;99140.00;5016679;28;20593;-64
2021/12/24 08:16:23;;;;;;;9.97;8.10;;;;;;;7.66;99.47;99130.31;5012848;28;20308;-64
2021/12/24 08:18:49;;;;;;;9.73;7.83;;;;;;;7.73;98.50;99126.50;5017485;28;20221;-64
2021/12/24 08:21:14;;;;;;;10.23;7.83;;;;;;;7.73;97.73;99137.53;5010468;28;20237;-64
2021/12/24 08:23:41;;;;;;;9.47;7.87;;;;;;;7.79;97.01;99140.66;5001249;28;20624;-64
2021/12/24 08:26:07;;;;;;;10.67;8.20;;;;;;;7.99;96.24;99142.03;4992936;28;20606;-64
2021/12/24 08:28:32;;;;;;;12.00;7.80;;;;;;;7.87;96.25;99146.16;5006818;28;20183;-65
2021/12/24 08:30:57;;;;;;;7.37;6.53;;;;;;;7.83;95.87;99147.25;4963144;28;20277;-65
2021/12/24 08:33:23;;;;;;;12.33;7.90;;;;;;;7.83;95.79;99147.25;4988124;28;20187;-65
2021/12/24 08:35:48;;;;;;;8.10;7.30;;;;;;;7.90;95.01;99146.81;4992612;28;20187;-64
2021/12/24 08:38:14;;;;;;;10.33;7.30;;;;;;;7.91;94.99;99151.03;4993032;28;20317;-64
2021/12/24 08:40:39;;;;;;;7.83;6.93;;;;;;;7.73;95.20;99149.53;4992758;28;20268;-64
2021/12/24 08:43:05;;;;;;;9.53;6.80;;;;;;;7.61;95.32;99158.72;5001849;28;20220;-64
2021/12/24 08:45:31;;;;;;;10.57;6.30;;;;;;;7.74;95.73;99143.50;4973301;28;20586;-64
2021/12/24 08:47:56;;;;;;;9.00;6.53;;;;;;;7.81;95.23;99137.09;4997104;28;20210;-65
2021/12/24 08:50:21;;;;;;;8.37;6.57;;;;;;;7.77;94.66;99134.81;5002961;28;20264;-65
2021/12/24 08:52:47;;;;;;;8.50;5.90;;;;;;;7.99;93.85;99137.75;5008511;28;20176;-65
2021/12/24 08:55:14;;;;;;;10.13;6.53;;;;;;;8.15;92.62;99147.06;4983573;28;20582;-65
2021/12/24 08:57:40;;;;;;;11.27;7.60;;;;;;;8.18;91.96;99139.22;5012485;28;20261;-65
2021/12/24 09:00:09;;;;;;;7.73;6.87;;;;;;;8.09;92.59;99138.03;4996744;28;20180;-66
2021/12/24 09:02:35;;;;;;;6.37;5.70;;;;;;;8.01;92.89;99138.50;5024161;28;20182;-65
2021/12/24 09:05:01;;;;;;;8.27;5.90;;;;;;;8.29;92.27;99138.59;5011413;28;20321;-66
2021/12/24 09:07:27;;;;;;;7.53;6.03;;;;;;;8.25;91.60;99132.81;5011058;28;20691;-65
2021/12/24 09:09:52;;;;;;;7.40;6.20;;;;;;;8.45;91.10;99128.22;5013154;28;20214;-66
2021/12/24 09:12:17;;;;;;;9.43;6.57;;;;;;;8.35;90.24;99122.84;4999580;28;20230;-65
2021/12/24 09:14:42;;;;;;;8.03;6.17;;;;;;;8.30;90.59;99122.25;5008452;28;20210;-66
2021/12/24 09:17:08;;;;;;;8.13;6.77;;;;;;;8.46;90.30;99128.16;4992674;28;20325;-67
2021/12/24 09:19:34;;;;;;;6.67;6.07;;;;;;;8.52;89.49;99132.91;4999091;28;20184;-66
2021/12/24 09:22:00;;;;;;;9.47;6.97;;;;;;;8.54;88.93;99135.38;5026140;28;20609;-67
2021/12/24 09:24:27;;;;;;;7.80;6.00;;;;;;;8.59;88.61;99130.78;4992456;28;20172;-66
2021/12/24 09:26:56;;;;;;;8.33;6.40;;;;;;;8.68;88.03;99134.50;5007052;28;20293;-67
2021/12/24 09:29:22;;;;;;;9.73;6.23;;;;;;;8.65;87.89;99134.72;5011854;28;20255;-68
2021/12/24 09:31:47;;;;;;;8.40;6.10;;;;;;;8.71;87.83;99135.13;5012018;28;20451;-66
2021/12/24 09:34:13;;;;;;;7.23;6.00;;;;;;;8.81;87.36;99137.97;5001562;28;20175;-66
2021/12/24 09:36:39;;;;;;;7.33;6.00;;;;;;;8.96;86.58;99132.78;5013453;28;20308;-66
2021/12/24 09:39:06;;;;;;;8.47;6.13;;;;;;;9.04;85.64;99131.38;5023313;28;20185;-67
2021/12/24 09:41:32;;;;;;;8.03;5.63;;;;;;;9.01;85.70;99120.50;5013525;28;20234;-67
2021/12/24 09:44:00;;;;;;;7.13;6.27;;;;;;;9.08;85.75;99114.06;4992974;28;20203;-66
2021/12/24 09:46:27;;;;;;;7.23;5.93;;;;;;;9.12;85.55;99112.13;4990947;28;20206;-67
2021/12/24 09:48:53;;;;;;;7.57;5.33;;;;;;;9.16;85.14;99121.25;5011122;28;20659;-66
2021/12/24 09:51:20;;;;;;;12.77;5.73;;;;;;;9.07;85.13;99116.69;5004501;28;20238;-66
2021/12/24 09:53:46;;;;;;;7.73;5.67;;;;;;;9.04;85.26;99110.88;5011398;28;20178;-66
2021/12/24 09:56:11;;;;;;;8.43;5.60;;;;;;;9.26;84.52;99116.34;5011332;28;20267;-66
2021/12/24 09:58:36;;;;;;;6.50;5.77;;;;;;;9.23;84.20;99122.50;5011430;28;20655;-67
2021/12/24 10:01:02;;;;;;;7.73;5.83;;;;;;;8.96;84.66;99115.66;5001771;28;20708;-65
2021/12/24 10:03:36;;;;;;;9.47;5.47;;;;;;;9.13;84.76;99111.16;5013577;28;20191;-66
2021/12/24 10:06:03;;;;;;;8.93;5.77;;;;;;;8.93;84.66;99109.88;5015940;28;20251;-66
2021/12/24 10:08:29;;;;;;;7.17;5.47;;;;;;;9.02;84.92;99105.00;5020365;28;20268;-66
2021/12/24 10:11:04;;;;;;;6.30;4.87;;;;;;;8.79;84.61;99115.91;5015344;28;20312;-66
2021/12/24 10:13:34;;;;;;;8.07;5.97;;;;;;;8.89;85.19;99111.81;5017340;28;20189;-66
2021/12/24 10:16:17;;;;;;;8.90;5.23;;;;;;;9.07;84.20;99106.44;5012371;28;20187;-67
2021/12/24 10:18:54;;;;;;;8.67;5.77;;;;;;;9.13;82.89;99106.03;5012008;28;20177;-66
2021/12/24 10:21:20;;;;;;;6.47;5.10;;;;;;;9.09;83.42;99096.91;5002813;28;20647;-65
2021/12/24 10:23:53;;;;;;;7.43;6.20;;;;;;;9.04;83.95;99103.16;5013704;28;20708;-66
2021/12/24 10:26:25;;;;;;;8.17;5.93;;;;;;;9.04;84.00;99103.16;4996734;28;20250;-65
2021/12/24 10:29:18;;;;;;;8.90;6.37;;;;;;;8.91;84.82;99114.31;5001498;28;20526;-66
2021/12/24 10:31:55;;;;;;;7.47;5.83;;;;;;;8.92;85.56;99106.50;4995786;28;20721;-66
2021/12/24 10:34:24;;;;;;;9.67;6.37;;;;;;;9.04;85.40;99103.16;4999329;28;20226;-66
2021/12/24 10:36:49;;;;;;;8.37;6.03;;;;;;;8.99;86.18;99097.50;4993905;28;20305;-67
2021/12/24 10:39:18;;;;;;;10.77;6.77;;;;;;;8.97;86.78;99098.53;4998071;28;20258;-66
2021/12/24 10:41:47;;;;;;;7.87;6.00;;;;;;;8.93;87.40;99089.38;4997113;28;20237;-66
2021/12/24 10:44:18;;;;;;;8.33;6.00;;;;;;;9.03;87.22;99085.31;4988651;28;20232;-66
2021/12/24 10:47:04;;;;;;;8.47;6.77;;;;;;;8.64;89.32;99089.47;4991010;28;20202;-65
2021/12/24 10:55:11;;;;;;;8.80;6.47;;;;;;;8.52;91.29;99076.50;4998252;28;20184;-65
2021/12/24 10:57:39;;;;;;;9.83;7.10;;;;;;;8.54;92.23;99073.84;4997282;28;20285;-67
2021/12/24 11:00:23;;;;;;;8.93;6.60;;;;;;;8.48;92.23;99067.34;4989065;28;20187;-68
2021/12/24 11:02:51;;;;;;;11.23;6.63;;;;;;;8.59;92.68;99066.69;5016344;28;20179;-67
2021/12/24 11:05:23;;;;;;;9.37;6.63;;;;;;;8.61;92.39;99056.34;5018197;28;20719;-67
2021/12/24 11:07:48;;;;;;;7.83;6.27;;;;;;;8.47;92.64;99046.94;5013104;28;20218;-67
2021/12/24 11:10:19;;;;;;;8.87;6.53;;;;;;;8.41;93.30;99048.16;5005624;28;20294;-67
2021/12/24 11:12:56;;;;;;;9.70;6.67;;;;;;;8.45;93.50;99054.72;5010901;28;20599;-67
2021/12/24 11:15:41;;;;;;;8.07;6.40;;;;;;;8.68;92.52;99044.78;5001784;28;20266;-67
2021/12/24 11:18:18;;;;;;;9.87;6.57;;;;;;;8.66;92.57;99052.56;4996041;28;20203;-67
2021/12/24 11:20:49;;;;;;;7.77;6.30;;;;;;;8.77;93.45;99062.16;4971884;28;20237;-66
2021/12/24 11:23:16;;;;;;;8.47;5.73;;;;;;;8.83;92.64;99058.34;5010300;28;20205;-67
2021/12/24 11:25:46;;;;;;;8.90;6.27;;;;;;;8.73;92.86;99070.94;5009780;28;20179;-65
2021/12/24 11:28:13;;;;;;;8.50;6.43;;;;;;;8.87;93.16;99062.38;5009444;28;20268;-65
2021/12/24 11:30:42;;;;;;;7.97;5.37;;;;;;;8.91;92.70;99068.16;5005375;28;20324;-65
2021/12/24 11:33:13;;;;;;;6.93;5.50;;;;;;;8.65;93.02;99079.13;5022187;28;20239;-65
2021/12/24 11:35:39;;;;;;;8.93;6.47;;;;;;;8.60;94.43;99080.34;5013344;28;20210;-68
2021/12/24 11:38:05;;;;;;;8.83;6.23;;;;;;;8.55;94.59;99078.06;5012840;28;20637;-67
2021/12/24 11:40:31;;;;;;;9.70;5.27;;;;;;;8.55;95.05;99063.50;5007802;28;20237;-67
2021/12/24 11:43:03;;;;;;;7.83;5.43;;;;;;;8.71;94.56;99044.59;5031246;28;20232;-67
2021/12/24 11:45:30;;;;;;;8.93;7.17;;;;;;;8.83;94.15;99048.09;5014407;28;20188;-67
2021/12/24 11:47:56;;;;;;;7.83;5.30;;;;;;;8.70;93.97;99042.94;5015597;28;20210;-67
2021/12/24 11:50:24;;;;;;;9.30;5.60;;;;;;;8.85;94.45;99057.34;5006796;28;20786;-67
2021/12/24 11:52:51;;;;;;;6.73;5.20;;;;;;;8.92;93.99;99039.81;5009462;28;20183;-67
2021/12/24 11:55:18;;;;;;;6.43;5.30;;;;;;;8.95;93.53;99047.31;4999154;28;20724;-66
2021/12/24 11:57:53;;;;;;;6.90;5.40;;;;;;;8.87;92.63;99045.25;4999002;28;20215;-67
2021/12/24 12:00:24;;;;;;;6.23;5.17;;;;;;;8.99;93.01;99042.81;4980002;28;20706;-67
2021/12/24 12:02:52;;;;;;;7.43;4.93;;;;;;;9.10;92.25;99045.50;5027673;28;20173;-66
2021/12/24 12:05:22;;;;;;;5.97;4.90;;;;;;;9.01;92.57;99041.78;5016558;28;20565;-66
2021/12/24 12:07:50;;;;;;;6.43;5.10;;;;;;;8.98;92.57;99041.16;5025949;28;20259;-66
2021/12/24 12:10:52;;;;;;;8.20;5.43;;;;;;;9.04;92.33;99030.50;5004368;28;20200;-66
2021/12/24 12:13:37;;;;;;;6.67;5.73;;;;;;;8.96;92.01;99022.50;5009112;28;20187;-68
2021/12/24 12:16:04;;;;;;;7.47;5.40;;;;;;;8.99;92.06;99023.13;4991497;28;20222;-69
2021/12/24 12:18:32;;;;;;;6.00;5.33;;;;;;;9.03;92.44;99021.19;5007043;28;20179;-68
2021/12/24 12:21:10;;;;;;;7.10;5.30;;;;;;;8.92;93.08;99019.31;4997114;28;20225;-69
2021/12/24 12:26:52;;;;;;;6.53;5.43;;;;;;;9.11;92.09;99018.09;4996988;28;20218;-68
2021/12/24 12:29:26;;;;;;;6.37;5.00;;;;;;;8.97;92.37;99009.56;5007920;28;20234;-68
2021/12/24 12:32:25;;;;;;;8.63;5.30;;;;;;;8.78;93.27;99017.66;4990061;28;20241;-68
2021/12/24 12:34:53;;;;;;;7.03;5.37;;;;;;;8.79;93.60;99006.44;5002374;28;20259;-68
2021/12/24 12:37:20;;;;;;;7.10;5.53;;;;;;;8.88;94.75;99007.59;5014827;28;20305;-67
2021/12/24 12:39:49;;;;;;;6.30;5.67;;;;;;;8.93;93.97;98997.88;5016744;28;20265;-67
2021/12/24 12:42:17;;;;;;;8.23;5.87;;;;;;;8.60;95.29;98998.31;5001075;28;20226;-66
2021/12/24 12:44:47;;;;;;;7.73;6.23;;;;;;;8.66;96.00;99003.84;5000739;28;20528;-66
2021/12/24 12:47:17;;;;;;;9.37;6.27;;;;;;;8.74;96.47;99005.91;5002168;28;20708;-67
2021/12/24 12:49:43;;;;;;;6.80;6.07;;;;;;;8.80;95.43;99000.41;5001607;28;20186;-67
2021/12/24 12:52:20;;;;;;;7.80;6.60;;;;;;;8.80;95.27;98997.84;5024183;28;20226;-67
2021/12/24 12:54:56;;;;;;;9.13;6.47;;;;;;;8.64;96.19;98990.31;5008956;28;20183;-67
2021/12/24 12:57:27;;;;;;;7.93;7.00;;;;;;;8.53;97.36;98985.91;5012145;28;20694;-66
2021/12/24 13:00:08;;;;;;;6.93;6.10;;;;;;;8.38;98.21;98981.69;5012511;28;20296;-67
2021/12/24 13:05:55;;;;;;;7.70;6.67;;;;;;;8.32;99.69;98992.34;4992400;28;20214;-66
2021/12/24 13:08:23;;;;;;;9.00;7.03;;;;;;;8.43;99.90;98987.34;4972649;28;20250;-66